sensor_id;sensor_type;location;lat;lon;timestamp;P1;durP1;ratioP1;P2;durP2;ratioP2
75593;SDS011;64176;49.156;7.810;2023-03-01T00:02:30;19.75;;;10.20;;
75593;SDS011;64176;49.156;7.810;2023-03-01T00:05:17;17.02;;;10.55;;
75593;SDS011;64176;49.156;7.810;2023-03-01T00:08:01;28.98;;;12.90;;
75593;SDS011;64176;49.156;7.810;2023-03-01T00:10:45;29.02;;;13.70;;
75593;SDS011;64176;49.156;7.810;2023-03-01T00:13:36;27.60;;;13.98;;
75593;SDS011;64176;49.156;7.810;2023-03-01T00:16:31;28.92;;;12.77;;
75593;SDS011;64176;49.156;7.810;2023-03-01T00:19:20;14.07;;;8.93;;
75593;SDS011;64176;49.156;7.810;2023-03-01T00:22:05;27.25;;;15.27;;
75593;SDS011;64176;49.156;7.810;2023-03-01T00:24:49;24.85;;;12.57;;
75593;SDS011;64176;49.156;7.810;2023-03-01T00:27:35;15.32;;;8.27;;
75593;SDS011;64176;49.156;7.810;2023-03-01T00:30:21;19.65;;;9.40;;
75593;SDS011;64176;49.156;7.810;2023-03-01T00:33:05;18.75;;;9.77;;
75593;SDS011;64176;49.156;7.810;2023-03-01T00:35:52;17.95;;;9.73;;
75593;SDS011;64176;49.156;7.810;2023-03-01T00:38:37;16.60;;;9.38;;
75593;SDS011;64176;49.156;7.810;2023-03-01T00:41:27;26.02;;;12.00;;
75593;SDS011;64176;49.156;7.810;2023-03-01T00:44:14;19.65;;;11.55;;
75593;SDS011;64176;49.156;7.810;2023-03-01T00:46:58;20.35;;;10.25;;
75593;SDS011;64176;49.156;7.810;2023-03-01T00:49:44;23.20;;;11.18;;
75593;SDS011;64176;49.156;7.810;2023-03-01T00:52:30;17.33;;;9.10;;
75593;SDS011;64176;49.156;7.810;2023-03-01T00:55:14;15.32;;;8.27;;
75593;SDS011;64176;49.156;7.810;2023-03-01T00:57:58;16.23;;;7.85;;
75593;SDS011;64176;49.156;7.810;2023-03-01T01:00:45;12.77;;;8.70;;
75593;SDS011;64176;49.156;7.810;2023-03-01T01:03:29;11.68;;;7.97;;
75593;SDS011;64176;49.156;7.810;2023-03-01T01:06:17;8.23;;;5.45;;
75593;SDS011;64176;49.156;7.810;2023-03-01T01:09:08;23.55;;;12.63;;
75593;SDS011;64176;49.156;7.810;2023-03-01T01:12:03;16.27;;;8.80;;
75593;SDS011;64176;49.156;7.810;2023-03-01T01:14:48;22.42;;;10.98;;
75593;SDS011;64176;49.156;7.810;2023-03-01T01:17:32;21.10;;;9.77;;
75593;SDS011;64176;49.156;7.810;2023-03-01T01:20:27;14.48;;;9.00;;
75593;SDS011;64176;49.156;7.810;2023-03-01T01:23:11;16.17;;;8.50;;
75593;SDS011;64176;49.156;7.810;2023-03-01T01:26:02;13.80;;;7.60;;
75593;SDS011;64176;49.156;7.810;2023-03-01T01:28:50;13.40;;;8.02;;
75593;SDS011;64176;49.156;7.810;2023-03-01T01:31:37;16.02;;;8.88;;
75593;SDS011;64176;49.156;7.810;2023-03-01T01:34:26;15.77;;;8.32;;
75593;SDS011;64176;49.156;7.810;2023-03-01T01:37:10;18.73;;;9.63;;
75593;SDS011;64176;49.156;7.810;2023-03-01T01:39:54;15.05;;;8.27;;
75593;SDS011;64176;49.156;7.810;2023-03-01T01:42:40;14.63;;;9.10;;
75593;SDS011;64176;49.156;7.810;2023-03-01T01:45:29;12.70;;;7.82;;
75593;SDS011;64176;49.156;7.810;2023-03-01T01:48:20;15.75;;;8.45;;
75593;SDS011;64176;49.156;7.810;2023-03-01T01:51:13;15.20;;;7.20;;
75593;SDS011;64176;49.156;7.810;2023-03-01T01:54:01;16.73;;;8.57;;
75593;SDS011;64176;49.156;7.810;2023-03-01T01:56:50;16.02;;;8.48;;
75593;SDS011;64176;49.156;7.810;2023-03-01T01:59:38;14.00;;;8.13;;
75593;SDS011;64176;49.156;7.810;2023-03-01T02:02:28;13.43;;;7.53;;
75593;SDS011;64176;49.156;7.810;2023-03-01T02:05:14;10.75;;;7.07;;
75593;SDS011;64176;49.156;7.810;2023-03-01T02:08:21;9.35;;;5.78;;
75593;SDS011;64176;49.156;7.810;2023-03-01T02:11:08;13.95;;;7.65;;
75593;SDS011;64176;49.156;7.810;2023-03-01T02:13:57;10.65;;;6.15;;
75593;SDS011;64176;49.156;7.810;2023-03-01T02:16:45;11.45;;;7.82;;
75593;SDS011;64176;49.156;7.810;2023-03-01T02:22:50;12.73;;;7.63;;
75593;SDS011;64176;49.156;7.810;2023-03-01T02:25:44;14.82;;;8.43;;
75593;SDS011;64176;49.156;7.810;2023-03-01T02:28:38;12.10;;;6.90;;
75593;SDS011;64176;49.156;7.810;2023-03-01T02:31:28;14.18;;;7.60;;
75593;SDS011;64176;49.156;7.810;2023-03-01T02:34:27;11.00;;;7.97;;
75593;SDS011;64176;49.156;7.810;2023-03-01T02:37:16;12.13;;;7.40;;
75593;SDS011;64176;49.156;7.810;2023-03-01T02:40:09;10.15;;;7.18;;
75593;SDS011;64176;49.156;7.810;2023-03-01T02:42:57;12.77;;;7.65;;
75593;SDS011;64176;49.156;7.810;2023-03-01T02:45:50;7.25;;;5.50;;
75593;SDS011;64176;49.156;7.810;2023-03-01T02:48:41;14.35;;;7.25;;
75593;SDS011;64176;49.156;7.810;2023-03-01T02:51:43;9.60;;;7.00;;
75593;SDS011;64176;49.156;7.810;2023-03-01T02:57:40;13.50;;;7.00;;
75593;SDS011;64176;49.156;7.810;2023-03-01T03:00:32;10.13;;;5.78;;
75593;SDS011;64176;49.156;7.810;2023-03-01T03:03:23;9.70;;;5.72;;
75593;SDS011;64176;49.156;7.810;2023-03-01T03:06:07;11.88;;;7.20;;
75593;SDS011;64176;49.156;7.810;2023-03-01T03:08:52;12.55;;;6.22;;
75593;SDS011;64176;49.156;7.810;2023-03-01T03:11:36;9.63;;;6.53;;
75593;SDS011;64176;49.156;7.810;2023-03-01T03:14:23;11.93;;;6.75;;
75593;SDS011;64176;49.156;7.810;2023-03-01T03:17:09;13.15;;;6.50;;
75593;SDS011;64176;49.156;7.810;2023-03-01T03:19:53;10.13;;;5.93;;
75593;SDS011;64176;49.156;7.810;2023-03-01T03:22:46;9.38;;;6.45;;
75593;SDS011;64176;49.156;7.810;2023-03-01T03:25:33;14.20;;;7.22;;
75593;SDS011;64176;49.156;7.810;2023-03-01T03:28:21;12.43;;;6.45;;
75593;SDS011;64176;49.156;7.810;2023-03-01T03:31:07;8.40;;;5.68;;
75593;SDS011;64176;49.156;7.810;2023-03-01T03:33:51;10.65;;;7.32;;
75593;SDS011;64176;49.156;7.810;2023-03-01T03:36:37;9.82;;;7.03;;
75593;SDS011;64176;49.156;7.810;2023-03-01T03:39:22;9.95;;;5.75;;
75593;SDS011;64176;49.156;7.810;2023-03-01T03:42:10;12.43;;;7.28;;
75593;SDS011;64176;49.156;7.810;2023-03-01T03:44:59;12.27;;;7.05;;
75593;SDS011;64176;49.156;7.810;2023-03-01T03:47:43;11.98;;;7.25;;
75593;SDS011;64176;49.156;7.810;2023-03-01T03:50:30;12.93;;;7.32;;
75593;SDS011;64176;49.156;7.810;2023-03-01T03:53:21;9.88;;;7.00;;
75593;SDS011;64176;49.156;7.810;2023-03-01T03:56:09;11.45;;;6.10;;
75593;SDS011;64176;49.156;7.810;2023-03-01T03:58:56;13.40;;;7.03;;
75593;SDS011;64176;49.156;7.810;2023-03-01T04:01:39;11.80;;;6.85;;
75593;SDS011;64176;49.156;7.810;2023-03-01T04:04:23;12.20;;;6.70;;
75593;SDS011;64176;49.156;7.810;2023-03-01T04:07:10;10.95;;;6.15;;
75593;SDS011;64176;49.156;7.810;2023-03-01T04:09:54;9.65;;;6.60;;
75593;SDS011;64176;49.156;7.810;2023-03-01T04:12:40;10.95;;;5.80;;
75593;SDS011;64176;49.156;7.810;2023-03-01T04:15:30;10.82;;;6.72;;
75593;SDS011;64176;49.156;7.810;2023-03-01T04:18:21;13.93;;;7.72;;
75593;SDS011;64176;49.156;7.810;2023-03-01T04:21:07;10.32;;;6.35;;
75593;SDS011;64176;49.156;7.810;2023-03-01T04:23:51;13.52;;;6.72;;
75593;SDS011;64176;49.156;7.810;2023-03-01T04:26:36;10.80;;;7.07;;
75593;SDS011;64176;49.156;7.810;2023-03-01T04:29:22;14.07;;;7.40;;
75593;SDS011;64176;49.156;7.810;2023-03-01T04:32:09;11.70;;;6.22;;
75593;SDS011;64176;49.156;7.810;2023-03-01T04:34:52;13.18;;;6.57;;
75593;SDS011;64176;49.156;7.810;2023-03-01T04:37:36;10.15;;;6.90;;
75593;SDS011;64176;49.156;7.810;2023-03-01T04:40:25;10.45;;;6.63;;
75593;SDS011;64176;49.156;7.810;2023-03-01T04:43:10;12.00;;;7.18;;
75593;SDS011;64176;49.156;7.810;2023-03-01T04:46:16;12.82;;;6.55;;
75593;SDS011;64176;49.156;7.810;2023-03-01T04:49:02;12.95;;;7.93;;
75593;SDS011;64176;49.156;7.810;2023-03-01T04:51:47;14.27;;;8.15;;
75593;SDS011;64176;49.156;7.810;2023-03-01T04:54:34;11.50;;;7.57;;
75593;SDS011;64176;49.156;7.810;2023-03-01T04:57:19;15.15;;;7.25;;
75593;SDS011;64176;49.156;7.810;2023-03-01T05:00:04;13.07;;;7.95;;
75593;SDS011;64176;49.156;7.810;2023-03-01T05:03:08;15.32;;;8.25;;
75593;SDS011;64176;49.156;7.810;2023-03-01T05:05:52;14.57;;;8.40;;
75593;SDS011;64176;49.156;7.810;2023-03-01T05:08:37;13.50;;;9.10;;
75593;SDS011;64176;49.156;7.810;2023-03-01T05:11:21;20.40;;;12.82;;
75593;SDS011;64176;49.156;7.810;2023-03-01T05:14:08;18.05;;;11.68;;
75593;SDS011;64176;49.156;7.810;2023-03-01T05:16:53;18.02;;;10.82;;
75593;SDS011;64176;49.156;7.810;2023-03-01T05:19:37;36.45;;;22.23;;
75593;SDS011;64176;49.156;7.810;2023-03-01T05:22:27;38.83;;;24.85;;
75593;SDS011;64176;49.156;7.810;2023-03-01T05:25:11;37.17;;;24.23;;
75593;SDS011;64176;49.156;7.810;2023-03-01T05:27:57;40.20;;;20.77;;
75593;SDS011;64176;49.156;7.810;2023-03-01T05:30:41;25.35;;;15.95;;
75593;SDS011;64176;49.156;7.810;2023-03-01T05:33:25;30.35;;;14.88;;
75593;SDS011;64176;49.156;7.810;2023-03-01T05:36:09;26.75;;;14.02;;
75593;SDS011;64176;49.156;7.810;2023-03-01T05:38:53;27.88;;;16.98;;
75593;SDS011;64176;49.156;7.810;2023-03-01T05:41:42;35.85;;;22.83;;
75593;SDS011;64176;49.156;7.810;2023-03-01T05:44:27;34.10;;;19.15;;
75593;SDS011;64176;49.156;7.810;2023-03-01T05:47:12;27.25;;;14.55;;
75593;SDS011;64176;49.156;7.810;2023-03-01T05:49:56;19.65;;;10.35;;
75593;SDS011;64176;49.156;7.810;2023-03-01T05:52:42;14.15;;;8.98;;
75593;SDS011;64176;49.156;7.810;2023-03-01T05:55:30;21.35;;;11.50;;
75593;SDS011;64176;49.156;7.810;2023-03-01T05:58:21;17.92;;;9.48;;
75593;SDS011;64176;49.156;7.810;2023-03-01T06:01:10;20.50;;;11.50;;
75593;SDS011;64176;49.156;7.810;2023-03-01T06:03:56;18.80;;;11.43;;
75593;SDS011;64176;49.156;7.810;2023-03-01T06:06:42;11.05;;;8.77;;
75593;SDS011;64176;49.156;7.810;2023-03-01T06:09:34;18.30;;;11.27;;
75593;SDS011;64176;49.156;7.810;2023-03-01T06:12:18;21.60;;;11.60;;
75593;SDS011;64176;49.156;7.810;2023-03-01T06:15:05;29.35;;;10.93;;
75593;SDS011;64176;49.156;7.810;2023-03-01T06:17:54;26.27;;;13.45;;
75593;SDS011;64176;49.156;7.810;2023-03-01T06:20:40;23.08;;;10.00;;
75593;SDS011;64176;49.156;7.810;2023-03-01T06:23:26;17.48;;;10.23;;
75593;SDS011;64176;49.156;7.810;2023-03-01T06:26:13;21.83;;;10.05;;
75593;SDS011;64176;49.156;7.810;2023-03-01T06:28:59;21.58;;;10.05;;
75593;SDS011;64176;49.156;7.810;2023-03-01T06:31:43;23.83;;;12.88;;
75593;SDS011;64176;49.156;7.810;2023-03-01T06:34:31;19.52;;;12.02;;
75593;SDS011;64176;49.156;7.810;2023-03-01T06:37:15;19.50;;;10.65;;
75593;SDS011;64176;49.156;7.810;2023-03-01T06:40:00;16.58;;;8.90;;
75593;SDS011;64176;49.156;7.810;2023-03-01T06:42:53;17.92;;;10.70;;
75593;SDS011;64176;49.156;7.810;2023-03-01T06:45:37;18.02;;;9.45;;
75593;SDS011;64176;49.156;7.810;2023-03-01T06:48:21;18.08;;;9.35;;
75593;SDS011;64176;49.156;7.810;2023-03-01T06:51:07;16.13;;;10.38;;
75593;SDS011;64176;49.156;7.810;2023-03-01T06:53:51;20.42;;;11.70;;
75593;SDS011;64176;49.156;7.810;2023-03-01T06:56:35;19.65;;;12.05;;
75593;SDS011;64176;49.156;7.810;2023-03-01T06:59:23;24.17;;;12.55;;
75593;SDS011;64176;49.156;7.810;2023-03-01T07:02:12;27.73;;;15.82;;
75593;SDS011;64176;49.156;7.810;2023-03-01T07:04:59;27.85;;;15.13;;
75593;SDS011;64176;49.156;7.810;2023-03-01T07:07:46;28.45;;;13.88;;
75593;SDS011;64176;49.156;7.810;2023-03-01T07:10:33;31.20;;;19.08;;
75593;SDS011;64176;49.156;7.810;2023-03-01T07:13:19;29.42;;;17.42;;
75593;SDS011;64176;49.156;7.810;2023-03-01T07:16:06;24.90;;;13.20;;
75593;SDS011;64176;49.156;7.810;2023-03-01T07:18:53;26.45;;;12.65;;
75593;SDS011;64176;49.156;7.810;2023-03-01T07:21:39;22.77;;;12.10;;
75593;SDS011;64176;49.156;7.810;2023-03-01T07:24:23;26.25;;;13.65;;
75593;SDS011;64176;49.156;7.810;2023-03-01T07:27:12;25.80;;;15.00;;
75593;SDS011;64176;49.156;7.810;2023-03-01T07:29:56;27.13;;;16.25;;
75593;SDS011;64176;49.156;7.810;2023-03-01T07:32:40;24.95;;;15.43;;
75593;SDS011;64176;49.156;7.810;2023-03-01T07:35:27;26.95;;;14.15;;
75593;SDS011;64176;49.156;7.810;2023-03-01T07:38:11;19.48;;;10.63;;
75593;SDS011;64176;49.156;7.810;2023-03-01T07:41:02;17.10;;;9.35;;
75593;SDS011;64176;49.156;7.810;2023-03-01T07:43:51;23.70;;;11.55;;
75593;SDS011;64176;49.156;7.810;2023-03-01T07:46:38;27.13;;;13.70;;
75593;SDS011;64176;49.156;7.810;2023-03-01T07:49:24;21.15;;;11.82;;
75593;SDS011;64176;49.156;7.810;2023-03-01T07:52:12;22.48;;;13.13;;
75593;SDS011;64176;49.156;7.810;2023-03-01T07:54:56;18.10;;;10.80;;
75593;SDS011;64176;49.156;7.810;2023-03-01T07:57:40;23.05;;;12.32;;
75593;SDS011;64176;49.156;7.810;2023-03-01T08:00:29;26.83;;;13.48;;
75593;SDS011;64176;49.156;7.810;2023-03-01T08:03:16;21.70;;;10.55;;
75593;SDS011;64176;49.156;7.810;2023-03-01T08:06:00;20.48;;;12.73;;
75593;SDS011;64176;49.156;7.810;2023-03-01T08:08:48;20.25;;;11.80;;
75593;SDS011;64176;49.156;7.810;2023-03-01T08:11:32;21.48;;;12.15;;
75593;SDS011;64176;49.156;7.810;2023-03-01T08:14:19;19.60;;;11.23;;
75593;SDS011;64176;49.156;7.810;2023-03-01T08:17:02;25.10;;;13.63;;
75593;SDS011;64176;49.156;7.810;2023-03-01T08:19:49;21.92;;;13.27;;
75593;SDS011;64176;49.156;7.810;2023-03-01T08:22:35;19.05;;;11.90;;
75593;SDS011;64176;49.156;7.810;2023-03-01T08:25:19;20.98;;;11.57;;
75593;SDS011;64176;49.156;7.810;2023-03-01T08:28:03;17.88;;;9.85;;
75593;SDS011;64176;49.156;7.810;2023-03-01T08:30:48;23.83;;;13.80;;
75593;SDS011;64176;49.156;7.810;2023-03-01T08:33:32;20.42;;;11.38;;
75593;SDS011;64176;49.156;7.810;2023-03-01T08:36:16;19.67;;;13.55;;
75593;SDS011;64176;49.156;7.810;2023-03-01T08:39:04;18.95;;;12.48;;
75593;SDS011;64176;49.156;7.810;2023-03-01T08:41:49;21.45;;;12.38;;
75593;SDS011;64176;49.156;7.810;2023-03-01T08:44:33;21.00;;;12.02;;
75593;SDS011;64176;49.156;7.810;2023-03-01T08:47:18;18.35;;;11.02;;
75593;SDS011;64176;49.156;7.810;2023-03-01T08:50:05;20.27;;;12.10;;
75593;SDS011;64176;49.156;7.810;2023-03-01T08:52:49;23.08;;;13.75;;
75593;SDS011;64176;49.156;7.810;2023-03-01T08:55:36;21.25;;;13.10;;
75593;SDS011;64176;49.156;7.810;2023-03-01T08:58:20;20.95;;;12.70;;
75593;SDS011;64176;49.156;7.810;2023-03-01T09:01:11;23.35;;;14.15;;
75593;SDS011;64176;49.156;7.810;2023-03-01T09:03:56;22.45;;;12.73;;
75593;SDS011;64176;49.156;7.810;2023-03-01T09:06:43;23.73;;;12.60;;
75593;SDS011;64176;49.156;7.810;2023-03-01T09:09:27;22.05;;;13.73;;
75593;SDS011;64176;49.156;7.810;2023-03-01T09:12:11;22.23;;;11.45;;
75593;SDS011;64176;49.156;7.810;2023-03-01T09:14:55;22.95;;;13.48;;
75593;SDS011;64176;49.156;7.810;2023-03-01T09:17:39;23.30;;;12.30;;
75593;SDS011;64176;49.156;7.810;2023-03-01T09:20:23;25.48;;;11.85;;
75593;SDS011;64176;49.156;7.810;2023-03-01T09:23:07;24.15;;;13.55;;
75593;SDS011;64176;49.156;7.810;2023-03-01T09:25:50;24.80;;;12.95;;
75593;SDS011;64176;49.156;7.810;2023-03-01T09:28:42;20.75;;;11.75;;
75593;SDS011;64176;49.156;7.810;2023-03-01T09:31:27;20.65;;;10.38;;
75593;SDS011;64176;49.156;7.810;2023-03-01T09:34:11;26.95;;;14.05;;
75593;SDS011;64176;49.156;7.810;2023-03-01T09:36:57;22.38;;;12.70;;
75593;SDS011;64176;49.156;7.810;2023-03-01T09:39:44;20.80;;;12.40;;
75593;SDS011;64176;49.156;7.810;2023-03-01T09:42:28;24.20;;;16.42;;
75593;SDS011;64176;49.156;7.810;2023-03-01T09:45:18;23.08;;;12.65;;
75593;SDS011;64176;49.156;7.810;2023-03-01T09:48:16;21.42;;;13.50;;
75593;SDS011;64176;49.156;7.810;2023-03-01T09:51:08;23.77;;;14.15;;
75593;SDS011;64176;49.156;7.810;2023-03-01T09:54:00;23.25;;;14.13;;
75593;SDS011;64176;49.156;7.810;2023-03-01T10:05:31;20.52;;;12.65;;
75593;SDS011;64176;49.156;7.810;2023-03-01T10:11:45;16.95;;;10.95;;
75593;SDS011;64176;49.156;7.810;2023-03-01T10:14:35;22.05;;;12.25;;
75593;SDS011;64176;49.156;7.810;2023-03-01T10:17:36;21.10;;;12.55;;
75593;SDS011;64176;49.156;7.810;2023-03-01T10:20:37;22.80;;;13.43;;
75593;SDS011;64176;49.156;7.810;2023-03-01T10:23:32;17.98;;;11.40;;
75593;SDS011;64176;49.156;7.810;2023-03-01T10:29:46;20.25;;;12.40;;
75593;SDS011;64176;49.156;7.810;2023-03-01T10:32:37;20.13;;;11.55;;
75593;SDS011;64176;49.156;7.810;2023-03-01T10:35:28;21.83;;;12.13;;
75593;SDS011;64176;49.156;7.810;2023-03-01T10:38:13;20.83;;;12.15;;
75593;SDS011;64176;49.156;7.810;2023-03-01T10:41:06;19.58;;;11.90;;
75593;SDS011;64176;49.156;7.810;2023-03-01T10:43:55;22.70;;;12.98;;
75593;SDS011;64176;49.156;7.810;2023-03-01T10:46:40;20.42;;;12.20;;
75593;SDS011;64176;49.156;7.810;2023-03-01T10:49:24;21.48;;;11.95;;
75593;SDS011;64176;49.156;7.810;2023-03-01T10:52:16;21.50;;;13.25;;
75593;SDS011;64176;49.156;7.810;2023-03-01T10:58:28;20.25;;;11.48;;
75593;SDS011;64176;49.156;7.810;2023-03-01T11:06:57;21.70;;;14.00;;
75593;SDS011;64176;49.156;7.810;2023-03-01T11:09:42;20.95;;;11.48;;
75593;SDS011;64176;49.156;7.810;2023-03-01T11:12:29;20.00;;;11.93;;
75593;SDS011;64176;49.156;7.810;2023-03-01T11:15:20;19.90;;;12.20;;
75593;SDS011;64176;49.156;7.810;2023-03-01T11:21:23;21.58;;;12.00;;
75593;SDS011;64176;49.156;7.810;2023-03-01T11:24:12;21.48;;;13.27;;
75593;SDS011;64176;49.156;7.810;2023-03-01T11:27:01;19.67;;;12.48;;
75593;SDS011;64176;49.156;7.810;2023-03-01T11:29:55;20.08;;;13.05;;
75593;SDS011;64176;49.156;7.810;2023-03-01T11:36:06;19.23;;;12.15;;
75593;SDS011;64176;49.156;7.810;2023-03-01T11:46:06;19.85;;;12.20;;
75593;SDS011;64176;49.156;7.810;2023-03-01T11:58:29;18.58;;;11.25;;
75593;SDS011;64176;49.156;7.810;2023-03-01T12:10:57;25.98;;;14.98;;
75593;SDS011;64176;49.156;7.810;2023-03-01T12:17:36;17.08;;;12.20;;
75593;SDS011;64176;49.156;7.810;2023-03-01T12:20:39;16.08;;;10.35;;
75593;SDS011;64176;49.156;7.810;2023-03-01T12:39:11;17.17;;;10.95;;
75593;SDS011;64176;49.156;7.810;2023-03-01T12:42:01;17.77;;;9.73;;
75593;SDS011;64176;49.156;7.810;2023-03-01T12:45:01;15.95;;;10.13;;
75593;SDS011;64176;49.156;7.810;2023-03-01T12:47:54;17.60;;;10.55;;
75593;SDS011;64176;49.156;7.810;2023-03-01T12:50:52;25.80;;;11.82;;
75593;SDS011;64176;49.156;7.810;2023-03-01T12:53:40;19.08;;;10.93;;
75593;SDS011;64176;49.156;7.810;2023-03-01T12:56:25;17.63;;;9.82;;
75593;SDS011;64176;49.156;7.810;2023-03-01T12:59:17;16.23;;;10.95;;
75593;SDS011;64176;49.156;7.810;2023-03-01T13:08:18;20.30;;;11.02;;
75593;SDS011;64176;49.156;7.810;2023-03-01T13:14:34;18.00;;;11.35;;
75593;SDS011;64176;49.156;7.810;2023-03-01T13:17:24;19.38;;;12.05;;
75593;SDS011;64176;49.156;7.810;2023-03-01T13:20:27;20.55;;;11.27;;
75593;SDS011;64176;49.156;7.810;2023-03-01T13:28:55;15.27;;;10.07;;
75593;SDS011;64176;49.156;7.810;2023-03-01T13:37:33;18.25;;;10.80;;
75593;SDS011;64176;49.156;7.810;2023-03-01T13:46:18;21.27;;;11.30;;
75593;SDS011;64176;49.156;7.810;2023-03-01T13:49:05;18.55;;;11.60;;
75593;SDS011;64176;49.156;7.810;2023-03-01T13:51:58;15.65;;;10.27;;
75593;SDS011;64176;49.156;7.810;2023-03-01T13:54:45;16.60;;;10.23;;
75593;SDS011;64176;49.156;7.810;2023-03-01T13:57:32;18.48;;;11.10;;
75593;SDS011;64176;49.156;7.810;2023-03-01T14:00:26;14.68;;;9.50;;
75593;SDS011;64176;49.156;7.810;2023-03-01T14:03:16;17.83;;;10.35;;
75593;SDS011;64176;49.156;7.810;2023-03-01T14:06:06;16.40;;;10.90;;
75593;SDS011;64176;49.156;7.810;2023-03-01T14:14:48;15.48;;;10.35;;
75593;SDS011;64176;49.156;7.810;2023-03-01T14:20:58;18.23;;;11.38;;
75593;SDS011;64176;49.156;7.810;2023-03-01T14:23:42;16.85;;;12.10;;
75593;SDS011;64176;49.156;7.810;2023-03-01T14:26:26;19.45;;;10.52;;
75593;SDS011;64176;49.156;7.810;2023-03-01T14:29:27;18.25;;;11.48;;
75593;SDS011;64176;49.156;7.810;2023-03-01T14:35:19;19.77;;;12.93;;
75593;SDS011;64176;49.156;7.810;2023-03-01T14:38:19;14.65;;;9.82;;
75593;SDS011;64176;49.156;7.810;2023-03-01T14:41:09;20.58;;;10.85;;
75593;SDS011;64176;49.156;7.810;2023-03-01T14:44:06;14.48;;;9.02;;
75593;SDS011;64176;49.156;7.810;2023-03-01T14:47:04;15.43;;;9.18;;
75593;SDS011;64176;49.156;7.810;2023-03-01T14:49:53;18.23;;;11.23;;
75593;SDS011;64176;49.156;7.810;2023-03-01T14:53:00;16.55;;;9.20;;
75593;SDS011;64176;49.156;7.810;2023-03-01T14:55:49;18.17;;;10.57;;
75593;SDS011;64176;49.156;7.810;2023-03-01T14:58:41;22.88;;;14.35;;
75593;SDS011;64176;49.156;7.810;2023-03-01T15:01:30;18.85;;;10.20;;
75593;SDS011;64176;49.156;7.810;2023-03-01T15:04:15;14.02;;;9.85;;
75593;SDS011;64176;49.156;7.810;2023-03-01T15:06:59;16.25;;;10.13;;
75593;SDS011;64176;49.156;7.810;2023-03-01T15:09:48;15.73;;;9.15;;
75593;SDS011;64176;49.156;7.810;2023-03-01T15:12:35;17.70;;;11.07;;
75593;SDS011;64176;49.156;7.810;2023-03-01T15:18:22;17.05;;;11.00;;
75593;SDS011;64176;49.156;7.810;2023-03-01T15:21:17;18.30;;;12.93;;
75593;SDS011;64176;49.156;7.810;2023-03-01T15:27:18;18.88;;;10.00;;
75593;SDS011;64176;49.156;7.810;2023-03-01T15:30:05;17.30;;;10.65;;
75593;SDS011;64176;49.156;7.810;2023-03-01T15:42:36;18.33;;;10.88;;
75593;SDS011;64176;49.156;7.810;2023-03-01T15:45:25;13.70;;;9.57;;
75593;SDS011;64176;49.156;7.810;2023-03-01T15:48:15;15.80;;;9.25;;
75593;SDS011;64176;49.156;7.810;2023-03-01T15:51:09;16.00;;;9.82;;
75593;SDS011;64176;49.156;7.810;2023-03-01T15:53:58;15.80;;;10.20;;
75593;SDS011;64176;49.156;7.810;2023-03-01T15:56:44;14.63;;;9.02;;
75593;SDS011;64176;49.156;7.810;2023-03-01T15:59:30;40.58;;;19.88;;
75593;SDS011;64176;49.156;7.810;2023-03-01T16:02:15;28.48;;;14.85;;
75593;SDS011;64176;49.156;7.810;2023-03-01T16:04:59;38.30;;;19.70;;
75593;SDS011;64176;49.156;7.810;2023-03-01T16:07:43;19.00;;;8.38;;
75593;SDS011;64176;49.156;7.810;2023-03-01T16:10:27;16.23;;;9.45;;
75593;SDS011;64176;49.156;7.810;2023-03-01T16:13:12;13.60;;;10.15;;
75593;SDS011;64176;49.156;7.810;2023-03-01T16:15:56;17.80;;;10.55;;
75593;SDS011;64176;49.156;7.810;2023-03-01T16:18:44;15.38;;;10.52;;
75593;SDS011;64176;49.156;7.810;2023-03-01T16:21:29;13.20;;;10.32;;
75593;SDS011;64176;49.156;7.810;2023-03-01T16:24:15;25.02;;;11.38;;
75593;SDS011;64176;49.156;7.810;2023-03-01T16:27:00;20.17;;;12.52;;
75593;SDS011;64176;49.156;7.810;2023-03-01T16:29:47;15.38;;;9.23;;
75593;SDS011;64176;49.156;7.810;2023-03-01T16:32:31;18.30;;;11.13;;
75593;SDS011;64176;49.156;7.810;2023-03-01T16:35:17;14.23;;;8.63;;
75593;SDS011;64176;49.156;7.810;2023-03-01T16:38:02;17.17;;;8.80;;
75593;SDS011;64176;49.156;7.810;2023-03-01T16:40:47;18.38;;;10.18;;
75593;SDS011;64176;49.156;7.810;2023-03-01T16:43:35;16.83;;;10.27;;
75593;SDS011;64176;49.156;7.810;2023-03-01T16:46:20;15.40;;;9.05;;
75593;SDS011;64176;49.156;7.810;2023-03-01T16:49:07;17.65;;;12.20;;
75593;SDS011;64176;49.156;7.810;2023-03-01T16:51:53;20.27;;;12.20;;
75593;SDS011;64176;49.156;7.810;2023-03-01T16:54:42;15.02;;;10.68;;
75593;SDS011;64176;49.156;7.810;2023-03-01T16:57:29;17.88;;;15.63;;
75593;SDS011;64176;49.156;7.810;2023-03-01T17:00:16;15.57;;;10.75;;
75593;SDS011;64176;49.156;7.810;2023-03-01T17:03:01;22.77;;;15.23;;
75593;SDS011;64176;49.156;7.810;2023-03-01T17:05:45;25.45;;;13.55;;
75593;SDS011;64176;49.156;7.810;2023-03-01T17:08:31;18.02;;;12.32;;
75593;SDS011;64176;49.156;7.810;2023-03-01T17:11:17;16.35;;;10.85;;
75593;SDS011;64176;49.156;7.810;2023-03-01T17:14:02;16.58;;;10.85;;
75593;SDS011;64176;49.156;7.810;2023-03-01T17:16:49;13.18;;;8.05;;
75593;SDS011;64176;49.156;7.810;2023-03-01T17:19:33;13.43;;;8.65;;
75593;SDS011;64176;49.156;7.810;2023-03-01T17:22:19;13.95;;;9.20;;
75593;SDS011;64176;49.156;7.810;2023-03-01T17:25:09;16.20;;;9.73;;
75593;SDS011;64176;49.156;7.810;2023-03-01T17:27:53;15.73;;;11.95;;
75593;SDS011;64176;49.156;7.810;2023-03-01T17:30:45;14.40;;;10.38;;
75593;SDS011;64176;49.156;7.810;2023-03-01T17:33:32;15.15;;;10.55;;
75593;SDS011;64176;49.156;7.810;2023-03-01T17:36:19;16.27;;;10.70;;
75593;SDS011;64176;49.156;7.810;2023-03-01T17:39:05;21.08;;;14.43;;
75593;SDS011;64176;49.156;7.810;2023-03-01T17:41:49;24.75;;;14.98;;
75593;SDS011;64176;49.156;7.810;2023-03-01T17:44:34;24.92;;;15.02;;
75593;SDS011;64176;49.156;7.810;2023-03-01T17:47:18;17.27;;;12.82;;
75593;SDS011;64176;49.156;7.810;2023-03-01T17:50:04;20.02;;;12.65;;
75593;SDS011;64176;49.156;7.810;2023-03-01T17:52:50;19.67;;;10.98;;
75593;SDS011;64176;49.156;7.810;2023-03-01T17:55:35;18.13;;;11.73;;
75593;SDS011;64176;49.156;7.810;2023-03-01T17:58:20;35.00;;;20.45;;
75593;SDS011;64176;49.156;7.810;2023-03-01T18:01:10;31.15;;;15.88;;
75593;SDS011;64176;49.156;7.810;2023-03-01T18:03:56;27.35;;;16.35;;
75593;SDS011;64176;49.156;7.810;2023-03-01T18:06:40;29.08;;;18.98;;
75593;SDS011;64176;49.156;7.810;2023-03-01T18:09:26;29.08;;;19.10;;
75593;SDS011;64176;49.156;7.810;2023-03-01T18:12:12;29.85;;;18.10;;
75593;SDS011;64176;49.156;7.810;2023-03-01T18:14:58;26.85;;;14.73;;
75593;SDS011;64176;49.156;7.810;2023-03-01T18:17:42;30.40;;;20.52;;
75593;SDS011;64176;49.156;7.810;2023-03-01T18:20:26;30.17;;;19.17;;
75593;SDS011;64176;49.156;7.810;2023-03-01T18:23:10;25.50;;;18.42;;
75593;SDS011;64176;49.156;7.810;2023-03-01T18:25:58;27.23;;;17.48;;
75593;SDS011;64176;49.156;7.810;2023-03-01T18:28:43;27.45;;;15.27;;
75593;SDS011;64176;49.156;7.810;2023-03-01T18:34:17;39.85;;;19.50;;
75593;SDS011;64176;49.156;7.810;2023-03-01T18:37:01;43.10;;;20.02;;
75593;SDS011;64176;49.156;7.810;2023-03-01T18:39:45;33.78;;;19.67;;
75593;SDS011;64176;49.156;7.810;2023-03-01T18:42:32;23.25;;;12.93;;
75593;SDS011;64176;49.156;7.810;2023-03-01T18:45:16;37.25;;;16.85;;
75593;SDS011;64176;49.156;7.810;2023-03-01T18:48:03;49.35;;;20.25;;